Etusivu
METAR-TAF:

METAR-TAF

Lentoasemat :

Moorhead Municipal Airport

Moorhead, Minnesota, Yhdysvallat

Leveyspiiri: 46-50-21N, Pituuspiiri: 096-39-47W, korkeus merenpinnasta: 280 m

Tämänhetkinen sää

Tämä raportti tehtiin 29 minuuttia sitten, kello 09.55 UTC
tyyntä
Lämpötila -6°C
Kosteus 79%
Ilmanpaine 1012 hPa
Hajanaisia pilviä 900 ft:n korkeudessa
Hajonneita pilviä 1600 ft:n korkeudessa
Pilvistä 3300 ft:n korkeudessa

METAR: KJKJ 170955Z AUTO 00000KT SCT009 BKN016 OVC033 M06/M09 A2989 RMK AO2 PWINO

Aika: 04:24 (10:24 UTC)


TAF: puuttuu

Säähavainnot ja -ennusteet yli 4000 lentoasemalta (METAR- ja TAF-raportit).

Käytössä olevat sääasemat on merkitty karttaan keltaisilla ja punaisilla pisteillä.

Aseta hiiri pisteen päälle nähdäksesi sääaseman nimen.

Klikkaa sitten nähdäksesi säähavainnot ja -ennusteet.

Kartan vaihtaminen: klikkaa mustalla rastilla varustettuja vihreitä pisteitä, niin voit zoomata sisään; viivalla varustettua vihreää pistettä, niin voit zoomata ulos tai vihreitä nuolia, niin pääset viereisille kartoille.


METAR-TAF: